createdAt,value
2019-04-14T00:02:03.296Z,5.70
2019-04-14T00:04:36.129Z,5.60
2019-04-14T00:07:05.949Z,5.60
2019-04-14T00:09:35.763Z,5.60
2019-04-14T00:12:07.449Z,5.50
2019-04-14T00:14:36.272Z,5.50
2019-04-14T00:17:06.569Z,5.40
2019-04-14T00:19:35.617Z,5.50
2019-04-14T00:22:05.306Z,5.40
2019-04-14T00:24:35.405Z,5.50
2019-04-14T00:27:06.268Z,5.40
2019-04-14T00:29:35.525Z,5.50
2019-04-14T00:32:05.263Z,5.40
2019-04-14T00:34:50.863Z,5.30
2019-04-14T00:37:35.779Z,5.40
2019-04-14T00:40:10.518Z,5.40
2019-04-14T00:42:47.357Z,5.40
2019-04-14T00:45:38.106Z,5.40
2019-04-14T00:48:09.256Z,5.30
2019-04-14T00:50:32.618Z,5.30
2019-04-14T00:53:01.541Z,5.30
2019-04-14T00:55:31.273Z,5.40
2019-04-14T00:58:01.414Z,5.30
2019-04-14T01:00:30.609Z,5.40
2019-04-14T01:03:00.717Z,5.30
2019-04-14T01:05:32.610Z,5.30
2019-04-14T01:08:00.973Z,5.30
2019-04-14T01:10:30.070Z,5.30
2019-04-14T01:13:00.522Z,5.30
2019-04-14T01:15:31.068Z,5.30
2019-04-14T01:18:01.488Z,5.20
2019-04-14T01:20:31.836Z,5.20
2019-04-14T01:23:02.039Z,5.30
2019-04-14T01:25:31.041Z,5.30
2019-04-14T01:28:00.313Z,5.30
2019-04-14T01:30:30.525Z,5.30
2019-04-14T01:32:59.666Z,5.30
2019-04-14T01:35:29.286Z,5.30
2019-04-14T01:37:59.421Z,5.30
2019-04-14T01:40:29.272Z,5.30
2019-04-14T01:42:59.410Z,5.30
2019-04-14T01:45:29.538Z,5.30
2019-04-14T01:47:59.583Z,5.30
2019-04-14T01:51:00.550Z,5.30
2019-04-14T01:53:46.689Z,5.30
2019-04-14T01:56:27.291Z,5.20
2019-04-14T01:58:57.952Z,5.20
2019-04-14T02:01:30.282Z,5.30
2019-04-14T02:04:00.643Z,5.30
2019-04-14T02:06:29.631Z,5.30
2019-04-14T02:08:58.969Z,5.30
2019-04-14T02:11:29.204Z,5.20
2019-04-14T02:13:59.354Z,5.20
2019-04-14T02:16:35.825Z,5.20
2019-04-14T02:19:00.344Z,5.20
2019-04-14T02:21:30.314Z,5.30
2019-04-14T02:24:00.476Z,5.20
2019-04-14T02:26:29.316Z,5.20
2019-04-14T02:28:59.244Z,5.30
2019-04-14T02:31:56.847Z,5.20
2019-04-14T02:34:41.514Z,5.20
2019-04-14T02:36:56.864Z,5.20
2019-04-14T02:39:31.095Z,5.30
2019-04-14T02:42:12.379Z,5.30
2019-04-14T02:44:33.139Z,5.20
2019-04-14T02:47:14.909Z,5.20
2019-04-14T02:52:09.663Z,5.20
2019-04-14T02:54:45.680Z,5.20
2019-04-14T02:57:03.001Z,5.20
2019-04-14T02:59:30.402Z,5.20
2019-04-14T03:02:15.909Z,5.20
2019-04-14T03:04:33.837Z,5.20
2019-04-14T03:07:12.040Z,5.20
2019-04-14T03:12:09.439Z,5.20
2019-04-14T03:20:17.555Z,5.00
2019-04-14T03:22:44.282Z,5.00
2019-04-14T03:25:15.241Z,5.00
2019-04-14T03:28:06.969Z,4.90
2019-04-14T03:30:58.690Z,4.90
2019-04-14T03:40:54.804Z,4.80
2019-04-14T03:43:09.947Z,4.80
2019-04-14T03:48:34.521Z,4.70
2019-04-14T03:50:37.896Z,4.70
2019-04-14T03:55:55.465Z,4.70
2019-04-14T03:58:20.603Z,4.70
2019-04-14T04:00:51.346Z,4.60
2019-04-14T04:03:20.332Z,4.70
2019-04-14T04:05:49.975Z,4.60
2019-04-14T04:08:20.081Z,4.70
2019-04-14T04:10:49.682Z,4.70
2019-04-14T04:13:19.417Z,4.60
2019-04-14T04:15:49.745Z,4.60
2019-04-14T04:18:22.533Z,4.50
2019-04-14T04:21:22.888Z,4.50
2019-04-14T04:23:55.860Z,4.50
2019-04-14T04:26:47.245Z,4.50
2019-04-14T04:29:30.957Z,4.50
2019-04-14T04:32:16.504Z,4.50
2019-04-14T04:35:08.488Z,4.50
2019-04-14T04:37:56.583Z,4.50
2019-04-14T04:40:29.054Z,4.50
2019-04-14T04:42:59.109Z,4.50
2019-04-14T04:45:28.394Z,4.50
2019-04-14T04:47:57.698Z,4.50
2019-04-14T04:50:28.153Z,4.50
2019-04-14T04:52:58.215Z,4.40
2019-04-14T04:55:28.635Z,4.40
2019-04-14T04:57:59.039Z,4.40
2019-04-14T05:00:28.785Z,4.50
2019-04-14T05:02:57.829Z,4.50
2019-04-14T05:06:19.267Z,4.50
2019-04-14T05:08:52.246Z,4.50
2019-04-14T05:11:40.434Z,4.50
2019-04-14T05:14:13.519Z,4.50
2019-04-14T05:16:42.440Z,4.60
2019-04-14T05:19:20.443Z,4.60
2019-04-14T05:21:43.014Z,4.60
2019-04-14T05:24:12.053Z,4.60
2019-04-14T05:26:41.737Z,4.70
2019-04-14T05:29:10.936Z,4.70
2019-04-14T05:31:40.418Z,4.70
2019-04-14T05:34:10.766Z,4.70
2019-04-14T05:36:39.747Z,4.70
2019-04-14T05:39:08.977Z,4.70
2019-04-14T05:41:38.084Z,4.70
2019-04-14T05:44:07.924Z,4.70
2019-04-14T05:46:38.093Z,4.80
2019-04-14T05:49:08.515Z,4.80
2019-04-14T05:51:37.632Z,4.90
2019-04-14T05:54:07.719Z,4.90
2019-04-14T05:56:37.999Z,4.90
2019-04-14T05:59:08.796Z,5.00
2019-04-14T06:01:39.139Z,5.00
2019-04-14T06:04:09.320Z,5.00
2019-04-14T06:06:38.436Z,5.10
2019-04-14T06:09:08.128Z,5.10
2019-04-14T06:11:37.266Z,5.20
2019-04-14T06:14:06.255Z,5.10
2019-04-14T06:16:35.092Z,5.10
2019-04-14T06:19:04.094Z,5.20
2019-04-14T06:21:33.520Z,5.20
2019-04-14T06:24:02.352Z,5.20
2019-04-14T06:26:31.240Z,5.20
2019-04-14T06:29:00.044Z,5.20
2019-04-14T06:31:42.960Z,5.30
2019-04-14T06:34:19.348Z,5.30
2019-04-14T06:37:08.123Z,5.30
2019-04-14T06:39:40.384Z,5.30
2019-04-14T06:42:09.220Z,5.40
2019-04-14T06:44:38.117Z,5.40
2019-04-14T06:47:06.916Z,5.40
2019-04-14T06:49:35.816Z,5.40
2019-04-14T06:52:05.296Z,5.50
2019-04-14T06:54:34.101Z,5.60
2019-04-14T06:57:03.060Z,5.70
2019-04-14T06:59:31.912Z,5.70
2019-04-14T07:02:01.816Z,5.80
2019-04-14T07:04:30.912Z,5.80
2019-04-14T07:06:59.916Z,5.80
2019-04-14T07:09:28.700Z,5.80
2019-04-14T07:11:57.600Z,5.90
2019-04-14T07:14:26.792Z,5.90
2019-04-14T07:16:55.597Z,5.90
2019-04-14T07:19:24.480Z,5.90
2019-04-14T07:21:53.256Z,5.90
2019-04-14T07:24:22.069Z,5.90
2019-04-14T07:26:51.054Z,6.00
2019-04-14T07:29:20.164Z,6.00
2019-04-14T07:32:05.117Z,6.00
2019-04-14T07:34:56.283Z,6.00
2019-04-14T07:37:42.386Z,6.00
2019-04-14T07:40:23.404Z,6.00
2019-04-14T07:42:58.012Z,6.00
2019-04-14T07:45:32.327Z,6.10
2019-04-14T07:48:10.116Z,6.10
2019-04-14T07:51:07.073Z,6.20
2019-04-14T07:53:49.612Z,6.30
2019-04-14T07:56:50.018Z,6.40
2019-04-14T07:59:27.916Z,6.50
2019-04-14T08:02:15.461Z,6.60
2019-04-14T08:04:54.125Z,6.70
2019-04-14T08:07:23.811Z,6.80
2019-04-14T08:09:52.764Z,6.80
2019-04-14T08:12:21.760Z,6.90
2019-04-14T08:14:50.644Z,6.90
2019-04-14T08:17:19.612Z,6.90
2019-04-14T08:19:48.424Z,6.90
2019-04-14T08:22:17.356Z,7.00
2019-04-14T08:24:46.256Z,7.10
2019-04-14T08:27:15.244Z,7.10
2019-04-14T08:29:44.264Z,7.30
2019-04-14T08:32:13.241Z,7.30
2019-04-14T08:34:42.066Z,7.40
2019-04-14T08:37:10.901Z,7.50
2019-04-14T08:39:40.074Z,7.60
2019-04-14T08:42:28.533Z,7.60
2019-04-14T08:44:59.688Z,7.70
2019-04-14T08:47:50.422Z,7.80
2019-04-14T08:50:24.668Z,7.90
2019-04-14T08:52:57.937Z,8.00
2019-04-14T08:55:45.896Z,8.20
2019-04-14T08:58:32.784Z,8.30
2019-04-14T09:01:20.752Z,8.30
2019-04-14T09:04:13.587Z,8.40
2019-04-14T09:07:04.681Z,8.50
2019-04-14T09:09:37.268Z,8.70
2019-04-14T09:12:15.656Z,8.70
2019-04-14T09:14:40.460Z,8.80
2019-04-14T09:17:09.877Z,8.80
2019-04-14T09:19:38.693Z,8.90
2019-04-14T09:22:07.600Z,8.90
2019-04-14T09:24:36.592Z,8.90
2019-04-14T09:27:05.569Z,9.00
2019-04-14T09:29:34.682Z,9.00
2019-04-14T09:32:05.284Z,9.20
2019-04-14T09:34:34.165Z,9.20
2019-04-14T09:37:03.122Z,9.30
2019-04-14T09:39:32.107Z,9.50
2019-04-14T09:42:02.224Z,9.50
2019-04-14T09:44:31.272Z,9.60
2019-04-14T09:47:00.185Z,9.70
2019-04-14T09:49:29.002Z,9.70
2019-04-14T09:51:58.008Z,9.70
2019-04-14T09:54:26.876Z,9.80
2019-04-14T09:56:55.908Z,9.90
2019-04-14T09:59:25.040Z,10.00
2019-04-14T10:01:54.432Z,10.10
2019-04-14T10:04:23.452Z,10.20
2019-04-14T10:06:52.449Z,10.40
2019-04-14T10:09:21.445Z,10.60
2019-04-14T10:11:53.684Z,10.60
2019-04-14T10:14:21.340Z,10.70
2019-04-14T10:16:50.258Z,10.80
2019-04-14T10:19:19.084Z,10.90
2019-04-14T10:21:47.992Z,11.00
2019-04-14T10:24:16.909Z,11.10
2019-04-14T10:26:45.809Z,11.30
2019-04-14T10:29:14.897Z,11.40
2019-04-14T10:31:43.825Z,11.50
2019-04-14T10:34:12.796Z,11.60
2019-04-14T10:36:41.782Z,11.70
2019-04-14T10:39:10.964Z,11.80
2019-04-14T10:41:39.931Z,12.00
2019-04-14T10:44:08.821Z,12.10
2019-04-14T10:46:37.630Z,12.10
2019-04-14T10:49:07.298Z,12.20
2019-04-14T10:51:36.225Z,12.40
2019-04-14T10:54:05.181Z,12.40
2019-04-14T10:56:34.348Z,12.40
2019-04-14T10:59:03.341Z,12.50
2019-04-14T11:01:32.219Z,12.60
2019-04-14T11:04:01.226Z,12.70
2019-04-14T11:06:38.432Z,12.80
2019-04-14T11:09:10.202Z,12.90
2019-04-14T11:11:39.010Z,13.00
2019-04-14T11:14:08.024Z,13.00
2019-04-14T11:16:36.910Z,13.00
2019-04-14T11:19:05.900Z,13.10
2019-04-14T11:21:42.326Z,13.10
2019-04-14T11:24:05.960Z,13.30
2019-04-14T11:26:35.132Z,13.40
2019-04-14T11:29:04.327Z,13.60
2019-04-14T11:31:48.292Z,13.90
2019-04-14T11:34:17.556Z,14.30
2019-04-14T11:37:09.136Z,14.60
2019-04-14T11:39:38.131Z,15.00
2019-04-14T11:42:07.045Z,15.20
2019-04-14T11:44:35.963Z,15.30
2019-04-14T11:47:05.572Z,15.40
2019-04-14T11:49:34.492Z,15.60
2019-04-14T11:52:03.781Z,15.70
2019-04-14T11:54:32.652Z,15.80
2019-04-14T11:57:01.436Z,15.90
2019-04-14T11:59:38.893Z,16.10
2019-04-14T12:02:16.152Z,16.30
2019-04-14T12:04:53.757Z,16.30
2019-04-14T12:07:38.672Z,16.50
2019-04-14T12:10:15.514Z,16.60
2019-04-14T12:12:44.845Z,16.60
2019-04-14T12:15:16.610Z,16.80
2019-04-14T12:17:44.681Z,16.90
2019-04-14T12:20:13.867Z,16.90
2019-04-14T12:22:42.870Z,17.00
2019-04-14T12:25:12.128Z,17.00
2019-04-14T12:27:42.006Z,17.10
2019-04-14T12:30:12.159Z,17.00
2019-04-14T12:32:41.954Z,16.80
2019-04-14T12:35:12.136Z,16.90
2019-04-14T12:37:41.132Z,17.00
2019-04-14T12:40:10.557Z,17.20
2019-04-14T12:42:57.111Z,17.40
2019-04-14T12:45:48.872Z,17.50
2019-04-14T12:48:23.954Z,17.90
2019-04-14T12:50:59.736Z,18.60
2019-04-14T12:53:28.636Z,19.60
2019-04-14T12:55:57.532Z,20.20
2019-04-14T12:58:36.239Z,19.90
2019-04-14T13:01:09.254Z,19.30
2019-04-14T13:03:41.917Z,18.90
2019-04-14T13:06:10.562Z,18.70
2019-04-14T13:08:39.613Z,19.40
2019-04-14T13:11:08.615Z,20.00
2019-04-14T13:13:37.567Z,20.00
2019-04-14T13:16:06.470Z,19.70
2019-04-14T13:18:35.304Z,19.80
2019-04-14T13:21:05.004Z,20.00
2019-04-14T13:23:33.826Z,20.00
2019-04-14T13:26:02.856Z,20.80
2019-04-14T13:28:31.824Z,21.60
2019-04-14T13:31:00.776Z,22.30
2019-04-14T13:33:29.677Z,22.60
2019-04-14T13:35:58.924Z,23.00
2019-04-14T13:38:28.491Z,23.20
2019-04-14T13:40:58.636Z,23.10
2019-04-14T13:43:27.425Z,22.90
2019-04-14T13:45:56.620Z,22.70
2019-04-14T13:48:28.515Z,22.90
2019-04-14T13:50:57.440Z,22.70
2019-04-14T13:53:26.373Z,21.90
2019-04-14T13:55:55.288Z,21.40
2019-04-14T13:58:24.257Z,20.70
2019-04-14T14:00:53.124Z,20.50
2019-04-14T14:03:22.082Z,21.10
2019-04-14T14:05:51.108Z,21.50
2019-04-14T14:08:20.108Z,21.70
2019-04-14T14:10:48.916Z,21.90
2019-04-14T14:13:34.883Z,22.40
2019-04-14T14:16:25.897Z,22.20
2019-04-14T14:19:09.116Z,21.60
2019-04-14T14:21:46.752Z,20.90
2019-04-14T14:24:27.950Z,20.50
2019-04-14T14:26:57.236Z,20.10
2019-04-14T14:29:26.072Z,19.50
2019-04-14T14:31:55.896Z,19.60
2019-04-14T14:34:24.865Z,19.70
2019-04-14T14:36:53.792Z,19.90
2019-04-14T14:39:22.877Z,20.00
2019-04-14T14:41:51.660Z,20.30
2019-04-14T14:44:22.510Z,20.50
2019-04-14T14:47:05.178Z,20.80
2019-04-14T14:49:47.596Z,20.60
2019-04-14T14:52:18.391Z,19.80
2019-04-14T14:54:47.280Z,19.20
2019-04-14T14:57:16.636Z,18.90
2019-04-14T14:59:45.777Z,19.00
2019-04-14T15:02:14.888Z,19.30
2019-04-14T15:04:44.080Z,19.40
2019-04-14T15:07:13.160Z,19.10
2019-04-14T15:09:41.964Z,18.70
2019-04-14T15:12:10.980Z,18.50
2019-04-14T15:14:39.769Z,18.40
2019-04-14T15:17:08.769Z,18.20
2019-04-14T15:19:37.664Z,18.10
2019-04-14T15:22:06.969Z,18.10
2019-04-14T15:24:35.961Z,18.20
2019-04-14T15:27:04.936Z,18.10
2019-04-14T15:29:33.716Z,18.30
2019-04-14T15:32:02.716Z,18.50
2019-04-14T15:34:31.644Z,18.50
2019-04-14T15:37:00.574Z,18.70
2019-04-14T15:39:29.564Z,18.60
2019-04-14T15:41:58.465Z,18.70
2019-04-14T15:44:27.508Z,18.40
2019-04-14T15:46:56.421Z,18.10
2019-04-14T15:49:25.585Z,17.90
2019-04-14T15:51:54.484Z,17.90
2019-04-14T15:54:25.378Z,17.60
2019-04-14T15:57:19.080Z,17.40
2019-04-14T16:00:05.726Z,17.30
2019-04-14T16:02:50.168Z,16.90
2019-04-14T16:05:32.312Z,16.60
2019-04-14T16:08:11.295Z,16.50
2019-04-14T16:10:52.906Z,16.40
2019-04-14T16:13:25.560Z,16.20
2019-04-14T16:16:28.564Z,16.20
2019-04-14T16:19:01.596Z,16.10
2019-04-14T16:21:30.497Z,15.80
2019-04-14T16:23:59.502Z,15.70
2019-04-14T16:26:46.436Z,15.60
2019-04-14T16:29:28.593Z,15.70
2019-04-14T16:32:10.449Z,15.50
2019-04-14T16:34:45.300Z,15.50
2019-04-14T16:37:14.509Z,15.50
2019-04-14T16:39:43.557Z,15.70
2019-04-14T16:42:12.452Z,15.60
2019-04-14T16:44:41.329Z,15.50
2019-04-14T16:47:10.125Z,15.40
2019-04-14T16:49:39.004Z,15.30
2019-04-14T16:52:42.412Z,15.40
2019-04-14T16:55:23.888Z,15.40
2019-04-14T16:58:09.510Z,15.30
2019-04-14T17:00:41.922Z,15.20
2019-04-14T17:03:10.911Z,15.10
2019-04-14T17:05:39.787Z,15.10
2019-04-14T17:08:09.728Z,14.90
2019-04-14T17:10:38.613Z,14.90
2019-04-14T17:13:07.676Z,14.90
2019-04-14T17:15:57.380Z,14.80
2019-04-14T17:18:35.892Z,14.70
2019-04-14T17:21:23.849Z,14.60
2019-04-14T17:24:15.957Z,14.50
2019-04-14T17:26:59.048Z,14.40
2019-04-14T17:29:45.863Z,14.30
2019-04-14T17:32:23.004Z,14.10
2019-04-14T17:35:09.577Z,13.90
2019-04-14T17:37:45.093Z,13.80
2019-04-14T17:40:27.024Z,13.50
2019-04-14T17:43:06.309Z,13.40
2019-04-14T17:46:00.282Z,13.20
2019-04-14T17:48:47.300Z,13.00
2019-04-14T17:51:24.763Z,12.90
2019-04-14T17:54:06.267Z,12.70
2019-04-14T17:56:43.918Z,12.50
2019-04-14T17:59:22.081Z,12.40
2019-04-14T18:02:09.109Z,12.20
2019-04-14T18:05:00.056Z,12.10
2019-04-14T18:07:41.372Z,12.10
2019-04-14T18:10:17.248Z,12.10
2019-04-14T18:13:00.068Z,12.00
2019-04-14T18:15:35.496Z,11.90
2019-04-14T18:18:26.397Z,11.70
2019-04-14T18:20:57.996Z,11.50
2019-04-14T18:23:27.084Z,11.40
2019-04-14T18:25:56.097Z,11.30
2019-04-14T18:28:40.253Z,11.20
2019-04-14T18:31:18.164Z,11.10
2019-04-14T18:33:57.243Z,11.00
2019-04-14T18:36:45.217Z,10.90
2019-04-14T18:39:31.774Z,10.90
2019-04-14T18:42:07.416Z,10.80
2019-04-14T18:44:43.065Z,10.60
2019-04-14T18:47:27.496Z,10.60
2019-04-14T18:50:01.537Z,10.50
2019-04-14T18:52:48.262Z,10.40
2019-04-14T18:55:42.408Z,10.30
2019-04-14T18:58:21.369Z,10.20
2019-04-14T19:00:53.040Z,10.10
2019-04-14T19:03:21.879Z,10.20
2019-04-14T19:05:51.243Z,10.10
2019-04-14T19:08:20.260Z,10.10
2019-04-14T19:11:02.931Z,9.90
2019-04-14T19:13:32.569Z,9.90
2019-04-14T19:16:06.408Z,9.80
2019-04-14T19:18:56.328Z,9.70
2019-04-14T19:21:27.429Z,9.70
2019-04-14T19:23:56.245Z,9.60
2019-04-14T19:26:25.456Z,9.60
2019-04-14T19:28:54.573Z,9.50
2019-04-14T19:31:23.957Z,9.40
2019-04-14T19:33:52.947Z,9.40
2019-04-14T19:36:21.840Z,9.40
2019-04-14T19:38:50.748Z,9.40
2019-04-14T19:41:19.535Z,9.40
2019-04-14T19:43:48.608Z,9.30
2019-04-14T19:46:17.604Z,9.20
2019-04-14T19:48:46.660Z,9.20
2019-04-14T19:51:15.680Z,9.20
2019-04-14T19:53:44.728Z,9.20
2019-04-14T19:56:13.532Z,9.10
2019-04-14T19:58:42.576Z,9.00
2019-04-14T20:01:11.681Z,9.00
2019-04-14T20:03:40.567Z,9.00
2019-04-14T20:06:09.709Z,9.00
2019-04-14T20:08:38.695Z,8.90
2019-04-14T20:11:07.765Z,9.00
2019-04-14T20:13:40.613Z,9.00
2019-04-14T20:16:24.675Z,8.90
2019-04-14T20:19:24.887Z,9.00
2019-04-14T20:22:18.852Z,9.00
2019-04-14T20:25:05.456Z,9.00
2019-04-14T20:27:39.161Z,9.00
2019-04-14T20:30:12.571Z,9.00
2019-04-14T20:32:42.442Z,9.00
2019-04-14T20:35:11.544Z,8.90
2019-04-14T20:37:40.572Z,8.90
2019-04-14T20:40:10.360Z,8.90
2019-04-14T20:42:39.257Z,8.90
2019-04-14T20:45:09.893Z,8.90
2019-04-14T20:47:38.809Z,8.90
2019-04-14T20:50:08.214Z,9.00
2019-04-14T20:52:37.217Z,8.90
2019-04-14T20:55:07.389Z,8.90
2019-04-14T20:57:36.401Z,9.00
2019-04-14T21:00:07.078Z,9.00
2019-04-14T21:03:04.332Z,8.90
2019-04-14T21:05:51.722Z,8.80
2019-04-14T21:08:40.878Z,8.80
2019-04-14T21:11:19.711Z,8.70
2019-04-14T21:14:07.800Z,8.70
2019-04-14T21:16:59.428Z,8.60
2019-04-14T21:19:45.700Z,8.60
2019-04-14T21:22:32.460Z,8.60
2019-04-14T21:25:26.572Z,7.60
2019-04-14T21:28:13.444Z,8.60
2019-04-14T21:31:01.292Z,8.50
2019-04-14T21:34:01.604Z,8.50
2019-04-14T21:36:37.939Z,8.50
2019-04-14T21:39:29.557Z,8.40
2019-04-14T21:41:58.513Z,8.40
2019-04-14T21:44:27.385Z,8.40
2019-04-14T21:46:56.660Z,8.40
2019-04-14T21:49:25.482Z,8.30
2019-04-14T21:52:01.955Z,8.30
2019-04-14T21:54:31.228Z,8.20
2019-04-14T21:57:17.756Z,8.20
2019-04-14T22:00:12.017Z,8.10
2019-04-14T22:03:00.013Z,8.00
2019-04-14T22:05:38.160Z,7.90
2019-04-14T22:08:20.332Z,7.90
2019-04-14T22:10:55.049Z,7.80
2019-04-14T22:13:24.189Z,7.70
2019-04-14T22:15:53.096Z,7.70
2019-04-14T22:18:22.384Z,7.70
2019-04-14T22:20:51.445Z,7.60
2019-04-14T22:23:20.460Z,7.50
2019-04-14T22:26:08.692Z,7.50
2019-04-14T22:28:37.602Z,7.40
2019-04-14T22:31:06.552Z,7.40
2019-04-14T22:33:35.790Z,7.40
2019-04-14T22:36:04.969Z,7.30
2019-04-14T22:38:34.033Z,7.20
2019-04-14T22:41:02.979Z,7.20
2019-04-14T22:43:31.888Z,7.20
2019-04-14T22:46:00.840Z,7.20
2019-04-14T22:48:29.854Z,7.20
2019-04-14T22:50:58.852Z,7.20
2019-04-14T22:53:27.825Z,7.10
2019-04-14T22:55:56.700Z,7.10
2019-04-14T22:58:25.600Z,7.10
2019-04-14T23:01:01.978Z,7.00
2019-04-14T23:03:47.693Z,7.00
2019-04-14T23:06:41.728Z,6.90
2019-04-14T23:09:28.272Z,6.80
2019-04-14T23:12:34.796Z,6.80
2019-04-14T23:15:22.069Z,6.70
2019-04-14T23:18:09.661Z,6.60
2019-04-14T23:21:03.861Z,6.60
2019-04-14T23:24:01.008Z,6.60
2019-04-14T23:26:29.986Z,6.60
2019-04-14T23:28:58.892Z,6.50
2019-04-14T23:31:27.784Z,6.60
2019-04-14T23:33:56.802Z,6.60
2019-04-14T23:36:25.589Z,6.60
2019-04-14T23:38:54.468Z,6.70
2019-04-14T23:41:23.399Z,6.70
2019-04-14T23:43:52.328Z,6.70
2019-04-14T23:46:21.120Z,6.70
2019-04-14T23:48:50.104Z,6.70
2019-04-14T23:51:19.028Z,6.70
2019-04-14T23:53:47.952Z,6.70
2019-04-14T23:56:17.004Z,6.70
2019-04-14T23:58:45.844Z,6.60
